Date,TemperatureHighF,TemperatureAvgF,TemperatureLowF,DewpointHighF,DewpointAvgF,DewpointLowF,HumidityHigh,HumidityAvg,HumidityLow,PressureMaxIn,PressureMinIn,WindSpeedMaxMPH,WindSpeedAvgMPH,GustSpeedMaxMPH,PrecipitationSumIn
2013-1-1,32,25,10,24,14,1,74,63,51,29.98,29.78,6,3,23,0.00
2013-1-2,24,13,2,16,5,-5,85,72,59,30.23,29.96,6,1,17,0.00
2013-1-3,21,6,-11,12,-1,-16,83,72,46,30.25,30.06,4,1,8,0.00
2013-1-4,36,28,16,20,18,12,87,65,49,30.06,29.87,7,2,23,0.00
2013-1-5,36,29,17,23,18,11,82,65,37,30.28,29.91,6,2,20,0.01
2013-1-6,35,27,18,28,22,14,88,81,67,30.22,29.97,2,0,6,0.00
2013-1-7,34,26,10,28,19,6,86,75,59,30.42,30.02,3,1,10,0.00
2013-1-8,41,20,4,24,12,0,88,74,43,30.45,30.33,3,0,7,0.04
2013-1-9,43,27,10,30,20,6,88,75,48,30.44,30.07,5,1,16,0.06
2013-1-10,41,34,22,29,22,17,83,62,46,30.58,30.15,7,2,23,0.00
2013-1-11,36,29,18,32,23,14,91,80,51,30.58,30.20,5,0,10,0.01
2013-1-12,46,37,33,42,34,31,92,91,83,30.21,30.14,1,0,4,0.01
2013-1-13,50,39,34,46,37,31,93,91,82,30.19,30.01,4,0,11,0.00
2013-1-14,47,38,30,44,31,21,93,77,52,30.32,29.91,6,1,19,0.09
2013-1-15,33,29,24,24,21,19,89,73,60,30.38,30.25,2,0,7,0.00
2013-1-16,32,29,27,29,26,20,91,86,75,30.27,29.86,1,0,3,0.00
2013-1-17,36,29,19,26,20,3,91,70,50,30.16,29.87,4,1,16,0.01
2013-1-18,20,14,7,6,-2,-9,81,51,35,30.45,30.09,5,1,17,0.00
2013-1-19,41,30,12,24,17,6,83,60,42,30.36,29.86,5,2,14,0.04
2013-1-20,45,33,19,31,20,8,83,58,39,29.99,29.60,6,3,20,0.13
2013-1-21,23,18,11,15,7,2,87,64,42,30.09,29.82,5,1,21,0.00
2013-1-22,18,12,7,12,1,-7,86,60,35,30.12,29.81,5,2,19,0.00
2013-1-23,9,2,-6,-2,-10,-13,75,55,38,30.20,30.11,5,2,20,0.00
2013-1-24,13,2,-11,-8,-11,-16,79,57,37,30.38,30.18,6,2,20,0.00
2013-1-25,17,8,-1,6,-6,-12,82,53,26,30.43,30.12,4,1,14,0.00
2013-1-26,17,7,-4,5,-1,-8,84,69,45,30.35,30.09,4,0,14,0.00
2013-1-27,24,12,3,2,0,-3,78,59,32,30.55,30.35,4,1,10,0.00
2013-1-28,25,18,5,22,12,-1,88,77,54,30.54,30.04,2,0,6,0.00
2013-1-29,40,31,25,34,28,22,91,88,77,30.19,30.04,2,0,6,0.55
2013-1-30,53,41,33,51,39,30,94,92,89,30.12,29.37,4,1,9,0.28
2013-1-31,54,36,22,52,29,14,94,76,52,29.62,28.95,7,3,22,0.86
2013-2-1,26,20,15,16,8,2,81,59,39,30.15,29.62,6,2,21,0.00
2013-2-2,26,16,4,13,5,-1,83,62,39,30.26,30.07,6,1,13,0.00
2013-2-3,26,17,8,12,9,5,87,72,44,30.08,29.81,4,0,10,0.00
2013-2-4,24,18,13,14,8,2,86,65,42,29.97,29.80,5,2,25,0.00
2013-2-5,29,20,12,16,8,4,75,61,42,30.04,29.93,4,1,9,0.00
2013-2-6,32,24,16,20,13,0,87,64,39,30.35,29.93,6,2,21,0.00
2013-2-7,26,18,6,7,3,-2,83,53,35,30.56,30.35,3,1,11,0.00
2013-2-8,26,22,18,19,14,5,85,71,45,30.45,29.78,8,3,30,0.00
2013-2-9,21,15,6,16,4,-7,87,65,38,30.35,29.83,5,1,24,0.00
2013-2-10,31,11,-9,10,-1,-14,81,63,23,30.55,30.36,3,0,7,0.00
2013-2-11,40,28,8,37,24,3,92,85,63,30.38,29.70,4,0,19,0.12
2013-2-12,36,33,30,28,25,20,79,70,64,29.93,29.72,7,3,24,0.01
2013-2-13,37,30,25,23,20,17,78,68,47,29.90,29.76,3,1,11,0.00
2013-2-14,40,27,13,21,18,9,88,71,42,30.00,29.75,3,0,7,0.01
2013-2-15,48,33,21,27,23,17,89,70,38,30.02,29.93,5,1,12,0.00
2013-2-16,33,28,23,26,17,5,88,66,45,30.03,29.82,2,0,10,0.01
2013-2-17,23,17,9,7,0,-4,59,48,31,29.90,29.63,6,2,23,0.00
2013-2-18,25,13,5,3,-3,-8,73,50,27,30.24,29.90,5,1,21,0.00
2013-2-19,41,28,10,31,18,2,91,69,37,30.25,29.64,4,0,14,0.04
2013-2-20,32,24,21,30,15,9,91,69,49,29.87,29.64,6,2,19,0.00
2013-2-21,23,19,16,12,9,5,74,64,51,30.39,29.83,7,2,26,0.00
2013-2-22,42,25,7,20,14,2,85,65,38,30.47,30.31,3,0,9,0.00
2013-2-23,34,32,29,29,25,20,88,78,62,30.32,29.92,3,1,11,0.00
2013-2-24,39,33,30,33,29,25,90,86,81,29.97,29.77,2,0,9,0.00
2013-2-25,37,30,24,26,24,20,86,76,60,30.28,29.97,2,0,8,0.00
2013-2-26,39,30,17,26,22,14,89,73,57,30.36,30.12,7,1,16,0.00
2013-2-27,39,34,30,34,30,24,90,85,71,30.13,29.61,9,3,30,0.00
2013-2-28,42,34,31,36,31,28,91,88,78,29.65,29.57,2,0,6,0.00
2013-3-1,40,34,30,31,27,22,91,77,57,29.76,29.60,3,1,13,0.00
2013-3-2,33,30,27,25,23,20,82,75,68,29.76,29.71,3,1,11,0.00
2013-3-3,30,25,22,21,18,16,82,75,63,29.76,29.69,3,1,10,0.00
2013-3-4,31,25,22,20,17,15,77,72,58,29.91,29.75,5,2,15,0.00
2013-3-5,41,30,24,25,21,16,87,70,49,30.12,29.91,4,1,11,0.01
2013-3-6,36,33,27,29,26,23,87,76,68,30.14,30.05,7,3,22,0.01
2013-3-7,36,31,28,29,25,21,89,77,62,30.14,30.09,5,2,12,0.00
2013-3-8,36,27,16,28,24,12,89,86,74,30.31,30.06,1,0,2,0.02
2013-3-9,50,27,7,27,18,3,90,73,34,30.39,30.30,3,0,7,0.43
2013-3-10,56,36,17,27,20,14,89,59,20,30.43,30.26,4,1,10,0.02
2013-3-11,49,39,29,34,28,23,85,66,39,30.29,30.08,4,1,10,0.00
2013-3-12,49,44,36,45,40,32,92,87,78,30.09,29.70,4,1,17,0.71
2013-3-13,43,36,31,32,23,14,87,63,34,29.86,29.79,4,1,15,0.00
2013-3-14,31,24,20,20,11,4,75,58,46,29.91,29.82,6,2,18,0.00
2013-3-15,34,25,16,26,15,4,85,64,42,29.93,29.69,5,2,21,0.00
2013-3-16,34,26,15,21,12,7,80,55,35,29.92,29.77,5,1,14,0.00
2013-3-17,33,25,17,14,6,-2,73,48,24,30.34,29.92,7,2,19,0.00
2013-3-18,37,23,8,21,3,-8,83,46,15,30.49,30.17,6,1,17,0.00
2013-3-19,33,29,24,28,24,20,89,83,76,30.17,29.72,7,2,22,0.00
2013-3-20,32,26,20,22,17,14,81,68,53,29.85,29.77,5,2,17,0.00
2013-3-21,36,22,4,16,9,-1,87,61,26,29.84,29.68,3,1,10,0.14
2013-3-22,33,24,10,24,16,6,86,72,53,29.83,29.72,5,1,15,0.02
2013-3-23,36,31,25,21,18,14,81,61,47,29.88,29.77,6,2,21,0.02
2013-3-24,42,33,27,22,20,18,80,60,41,29.91,29.78,4,1,13,0.01
2013-3-25,41,34,26,25,22,19,80,60,46,29.81,29.54,4,1,9,0.00
2013-3-26,42,34,25,27,23,16,84,65,35,29.87,29.62,3,1,11,0.00
2013-3-27,48,33,17,30,23,14,88,69,39,29.96,29.86,4,1,17,0.00
2013-3-28,45,37,30,32,29,26,89,73,53,30.11,29.95,2,0,9,0.01
2013-3-29,47,38,30,31,29,26,91,72,49,30.14,30.07,3,1,12,0.00
2013-3-30,52,37,24,30,22,15,91,61,24,30.16,30.07,4,1,12,0.00
2013-3-31,54,38,22,36,24,17,89,65,25,30.16,29.75,6,2,16,0.26
2013-4-1,51,37,28,41,28,9,92,73,37,29.87,29.57,6,2,22,0.24
2013-4-2,32,28,23,18,13,7,78,55,35,30.00,29.85,7,3,23,0.00
2013-4-3,38,29,23,18,12,8,72,51,29,30.27,29.99,6,3,21,0.00
2013-4-4,51,35,21,22,16,10,81,51,20,30.37,30.04,5,1,12,0.00
2013-4-5,52,38,26,26,21,13,85,56,22,30.04,29.76,6,2,21,0.00
2013-4-6,43,32,24,27,8,-2,78,40,16,30.34,29.97,5,2,17,0.00
2013-4-7,56,38,24,37,23,12,85,60,21,30.33,29.96,9,2,21,0.02
2013-4-8,63,46,30,35,31,24,91,61,25,30.13,30.01,3,1,10,0.00
2013-4-9,58,50,43,48,40,33,92,69,48,30.05,29.90,7,1,21,0.13
2013-4-10,60,49,43,48,44,38,91,83,61,30.01,29.85,3,0,7,0.82
2013-4-11,48,41,35,46,35,25,92,80,61,30.14,29.86,3,1,8,0.05
2013-4-12,36,34,32,29,28,26,85,80,64,30.14,29.83,8,3,24,0.07
2013-4-13,48,39,32,35,32,28,91,77,54,29.98,29.83,3,1,12,0.25
2013-4-14,44,38,27,33,27,21,87,67,43,30.28,29.96,4,1,19,0.01
2013-4-15,62,42,24,32,27,21,90,60,28,30.41,30.26,4,1,15,0.00
2013-4-16,61,48,34,52,40,29,88,75,49,30.37,30.08,9,2,25,0.24
2013-4-17,61,49,38,48,33,23,85,59,25,30.36,30.15,4,1,17,0.07
2013-4-18,59,31,31,34,-6,-100,87,44,33,30.40,30.19,7,2,19,0.00
2013-4-19,66,59,47,59,53,42,86,80,74,29.73,29.57,7,4,19,0.52
2013-4-20,51,43,32,42,30,18,89,63,34,30.27,29.69,6,2,22,0.33
2013-4-21,50,36,27,22,16,8,66,47,19,30.65,30.27,4,1,12,0.00
2013-4-22,56,41,27,26,19,12,73,45,20,30.71,30.53,6,1,19,0.00
2013-4-23,46,39,33,36,30,24,79,71,63,30.54,30.13,3,2,15,0.00
2013-4-24,74,55,33,47,38,30,91,59,23,30.14,29.73,7,2,18,0.00
2013-4-25,59,45,33,49,30,20,82,57,27,30.27,29.74,6,2,26,0.15
2013-4-26,58,43,28,32,27,20,87,57,25,30.43,30.27,4,1,11,0.00
2013-4-27,65,47,28,35,26,14,89,53,15,30.44,30.28,5,1,13,0.00
2013-4-28,72,54,32,36,31,25,84,48,19,30.31,30.12,5,1,13,0.00
2013-4-29,63,52,43,41,34,27,76,52,36,30.22,30.15,5,1,14,0.00
2013-4-30,73,57,45,39,32,22,77,44,16,30.29,30.21,6,1,16,0.00
2013-5-1,75,56,36,37,28,10,81,43,8,30.43,30.29,5,1,14,0.00
2013-5-2,78,58,37,44,35,21,88,49,17,30.43,30.26,4,1,16,0.00
2013-5-3,69,56,42,40,32,18,73,42,22,30.46,30.31,4,1,18,0.00
2013-5-4,75,56,36,42,33,18,91,50,13,30.36,30.18,4,1,11,0.00
2013-5-5,74,54,34,36,28,15,83,43,11,30.26,30.15,5,1,12,0.00
2013-5-6,78,55,33,41,31,12,90,52,9,30.24,30.07,5,1,12,0.00
2013-5-7,80,61,40,50,41,28,92,57,15,30.15,30.02,5,1,13,0.00
2013-5-8,72,60,49,57,52,46,91,78,48,30.13,29.99,5,1,14,0.40
2013-5-9,66,57,48,56,52,46,93,84,57,30.00,29.84,3,0,7,0.16
2013-5-10,76,61,50,56,50,43,92,72,32,29.96,29.85,3,1,9,0.00
2013-5-11,63,60,54,60,56,50,92,88,79,29.85,29.64,4,1,14,0.37
2013-5-12,59,51,40,50,39,24,92,66,30,29.82,29.61,5,1,17,0.00
2013-5-13,46,41,37,32,26,22,80,56,41,30.06,29.83,5,2,16,0.00
2013-5-14,54,41,28,31,27,21,89,62,32,30.09,30.00,3,1,10,0.00
2013-5-15,60,45,28,49,37,26,91,74,33,30.07,29.66,5,1,14,0.12
2013-5-16,76,61,41,46,34,22,92,45,16,29.81,29.67,7,2,21,0.00
2013-5-17,66,54,42,39,36,29,85,55,26,30.21,29.81,5,1,15,0.00
2013-5-18,72,56,40,44,38,31,84,55,23,30.29,30.19,4,1,11,0.00
2013-5-19,59,52,42,53,48,40,91,86,72,30.30,30.17,3,0,7,0.08
2013-5-20,78,62,53,62,56,50,92,81,55,30.17,29.93,3,0,8,0.00
2013-5-21,87,68,53,67,59,51,93,76,36,29.96,29.78,4,1,13,1.04
2013-5-22,79,65,54,68,60,51,93,87,67,29.91,29.79,4,0,10,1.53
2013-5-23,75,67,60,65,62,57,93,87,68,29.83,29.70,4,1,15,0.23
2013-5-24,63,53,42,61,49,38,93,88,77,29.91,29.61,3,0,12,0.82
2013-5-25,44,41,38,41,38,35,93,89,82,29.91,29.83,3,1,15,0.86
2013-5-26,50,43,36,44,39,34,92,86,74,30.13,29.82,4,1,16,0.59
2013-5-27,68,49,31,43,35,29,94,65,25,30.19,30.11,4,1,11,0.00
2013-5-28,73,56,36,51,40,32,92,60,23,30.22,30.11,4,1,12,0.00
2013-5-29,78,63,55,67,58,50,92,84,60,30.12,29.91,3,0,11,1.31
2013-5-30,85,69,58,67,61,56,93,77,42,30.10,30.02,4,1,17,0.01
2013-5-31,90,73,57,68,60,51,93,69,27,30.10,29.91,4,1,13,0.00
2013-6-1,90,73,60,73,62,57,93,73,33,29.95,29.81,5,0,13,0.03
2013-6-2,87,71,63,68,64,60,93,80,46,29.84,29.65,6,1,17,0.29
2013-6-3,69,62,50,63,53,39,93,75,50,29.88,29.75,4,1,12,0.01
2013-6-4,70,56,45,47,41,36,86,60,34,30.10,29.87,5,1,16,0.00
2013-6-5,72,56,42,46,41,30,92,62,25,30.19,30.09,4,1,9,0.00
2013-6-6,71,58,47,52,46,40,89,65,36,30.16,30.04,5,1,13,0.27
2013-6-7,54,52,51,50,49,47,91,88,82,30.04,29.79,3,1,21,1.19
2013-6-8,65,58,51,57,53,48,92,85,73,30.02,29.68,3,1,12,0.21
2013-6-9,75,62,53,56,52,50,93,73,43,30.17,30.02,3,0,12,0.00
2013-6-10,67,58,48,58,54,46,93,86,61,30.18,29.90,4,1,17,0.89
2013-6-11,63,59,55,58,55,52,92,88,81,29.90,29.57,4,1,13,1.00
2013-6-12,68,58,51,54,51,48,91,79,49,29.84,29.60,4,1,15,0.12
2013-6-13,56,52,46,54,49,44,93,90,87,29.83,29.66,3,1,15,1.36
2013-6-14,73,58,49,59,50,42,93,78,32,29.84,29.66,3,1,11,0.17
2013-6-15,74,59,44,53,45,37,94,65,29,29.96,29.84,4,1,14,0.01
2013-6-16,71,59,46,59,51,44,91,77,51,29.95,29.70,4,1,15,0.03
2013-6-17,78,64,56,66,58,53,92,83,49,29.90,29.78,5,1,18,1.11
2013-6-18,66,58,51,61,55,49,94,89,75,29.93,29.87,3,0,6,0.04
2013-6-19,70,56,42,51,43,30,94,68,25,30.17,29.93,4,1,17,0.00
2013-6-20,77,59,41,55,44,33,91,63,23,30.26,30.17,3,0,11,0.00
2013-6-21,82,66,50,57,48,36,93,60,24,30.24,30.19,3,0,8,0.00
2013-6-22,83,69,54,63,57,50,92,68,38,30.21,30.06,5,1,12,0.00
2013-6-23,90,74,61,68,63,58,91,70,43,30.11,29.95,4,1,13,0.00
2013-6-24,89,72,62,69,64,59,92,80,46,30.00,29.88,4,0,11,0.93
2013-6-25,88,72,62,70,65,60,93,81,44,29.95,29.70,5,1,16,0.49
2013-6-26,80,69,63,68,65,61,93,86,63,29.81,29.72,2,0,7,0.12
2013-6-27,82,70,60,68,64,58,94,81,55,29.81,29.61,4,1,12,0.31
2013-6-28,79,71,64,68,64,61,92,81,56,29.62,29.42,4,1,18,0.74
2013-6-29,82,71,64,65,62,57,93,74,44,29.66,29.45,5,1,13,0.00
2013-6-30,82,70,61,70,64,59,92,82,54,29.89,29.66,4,0,11,0.09
2013-7-1,79,70,64,71,66,62,93,89,70,30.01,29.90,2,0,7,0.09
2013-7-2,84,74,69,71,69,67,93,86,61,30.11,30.00,4,1,12,0.72
2013-7-3,85,75,70,71,69,67,93,82,59,30.17,30.09,3,1,11,0.00
2013-7-4,89,78,68,72,68,65,93,75,46,30.18,30.06,4,1,11,0.00
2013-7-5,91,78,70,71,69,65,92,75,44,30.13,30.00,4,1,13,0.00
2013-7-6,85,75,66,70,66,61,92,75,47,30.07,29.98,4,1,15,0.00
2013-7-7,89,74,62,74,67,60,92,79,51,30.03,29.90,3,0,7,0.02
2013-7-8,83,74,68,70,66,63,93,79,55,30.00,29.90,3,0,7,0.04
2013-7-9,84,72,65,71,66,63,93,84,58,30.05,29.97,3,0,7,0.04
2013-7-10,82,73,68,72,68,66,93,87,67,29.99,29.75,5,1,15,0.13
2013-7-11,81,72,63,68,63,57,93,76,47,29.94,29.73,4,0,11,0.01
2013-7-12,82,70,58,64,58,55,90,68,46,30.16,29.94,2,0,12,0.00
2013-7-13,74,69,62,68,61,51,92,76,56,30.27,30.15,3,0,8,0.06
2013-7-14,89,76,66,71,67,64,93,77,47,30.30,30.19,2,0,8,0.00
2013-7-15,88,76,65,71,66,62,93,74,44,30.20,30.10,4,1,10,0.00
2013-7-16,89,75,62,70,64,59,93,72,41,30.19,30.11,4,1,11,0.00
2013-7-17,91,77,63,71,66,61,92,72,40,30.18,29.99,3,0,10,0.00
2013-7-18,91,79,70,73,69,65,92,73,44,30.01,29.90,3,1,13,0.00
2013-7-19,92,79,66,74,69,63,93,73,49,29.92,29.68,5,1,20,0.13
2013-7-20,86,72,62,70,64,59,93,78,49,29.82,29.66,4,1,16,0.01
2013-7-21,82,69,57,65,59,54,93,74,42,29.97,29.82,4,0,10,0.00
2013-7-22,83,71,60,66,62,57,91,75,51,29.97,29.81,4,0,13,0.00
2013-7-23,80,71,64,69,66,62,93,84,59,29.81,29.52,3,0,9,1.46
2013-7-24,74,66,54,64,57,48,93,76,48,29.97,29.58,4,1,16,0.00
2013-7-25,74,59,45,58,51,43,93,75,53,30.08,29.97,2,0,5,0.00
2013-7-26,72,63,56,60,56,53,91,79,57,30.05,29.98,3,0,9,0.00
2013-7-27,82,66,50,64,56,48,94,74,40,30.04,29.94,4,1,9,0.00
2013-7-28,76,66,59,68,62,57,93,87,64,29.98,29.91,2,0,8,0.68
2013-7-29,80,70,59,65,61,56,93,78,48,30.07,29.93,3,0,10,0.01
2013-7-30,76,63,50,58,54,48,94,75,45,30.12,30.05,3,1,9,0.00
2013-7-31,79,64,50,60,55,48,94,75,42,30.15,30.02,3,0,10,0.00
2013-8-1,75,62,54,64,58,51,93,86,64,30.03,29.83,4,0,13,0.17
2013-8-2,78,68,60,62,58,50,93,75,40,29.85,29.78,3,1,13,0.01
2013-8-3,78,64,54,58,54,47,92,71,34,29.86,29.78,4,1,15,0.00
2013-8-4,73,58,49,59,52,46,93,81,48,29.94,29.81,3,1,14,0.53
2013-8-5,72,58,50,51,47,39,94,70,32,30.05,29.93,6,1,20,0.01
2013-8-6,78,60,45,57,49,42,92,70,34,30.12,30.05,4,0,8,0.00
2013-8-7,76,65,55,60,56,51,91,74,42,30.14,30.04,4,1,11,0.00
2013-8-8,82,72,65,68,65,61,92,80,60,30.04,29.95,4,1,13,0.01
2013-8-9,73,71,68,70,68,66,93,91,83,29.96,29.73,2,0,7,2.79
2013-8-10,75,66,52,66,55,46,93,72,38,30.03,29.81,5,1,17,0.00
2013-8-11,75,60,46,57,50,44,94,74,40,30.10,30.00,3,0,12,0.00
2013-8-12,78,63,51,62,54,49,94,76,42,30.04,29.90,3,0,8,0.00
2013-8-13,71,64,59,65,61,56,93,89,77,29.91,29.65,3,0,14,1.72
2013-8-14,68,59,50,58,51,48,91,76,56,29.98,29.72,4,1,16,0.00
2013-8-15,71,57,44,54,48,42,93,76,43,30.12,29.98,5,1,13,0.00
2013-8-16,75,59,46,55,49,44,94,73,37,30.20,30.12,3,0,13,0.00
2013-8-17,80,61,46,61,52,44,94,75,36,30.28,30.21,2,0,8,0.00
2013-8-18,72,62,52,63,56,50,93,83,62,30.26,30.10,1,0,4,0.00
2013-8-19,78,63,52,62,56,50,94,80,46,30.10,29.97,3,0,10,0.01
2013-8-20,80,65,51,63,56,49,94,75,41,30.12,30.01,3,0,9,0.00
2013-8-21,83,67,53,66,58,51,94,77,38,30.16,30.02,4,0,13,0.00
2013-8-22,85,69,57,67,60,55,94,78,40,30.03,29.80,3,0,12,0.01
2013-8-23,76,65,50,64,55,46,93,72,44,30.14,29.84,4,1,11,0.00
2013-8-24,78,58,42,57,48,40,94,73,38,30.35,30.14,3,0,8,0.00
2013-8-25,79,61,45,60,51,43,94,73,32,30.38,30.17,4,0,9,0.00
2013-8-26,70,64,59,64,61,56,93,90,79,30.17,29.87,2,0,5,0.37
2013-8-27,82,70,63,69,65,61,94,85,60,29.89,29.82,3,0,11,0.06
2013-8-28,86,69,59,70,63,57,94,84,48,29.92,29.80,2,0,5,0.33
2013-8-29,75,66,60,65,61,57,94,84,64,30.02,29.92,2,0,11,0.00
2013-8-30,82,70,63,68,63,60,92,80,51,30.00,29.80,3,0,7,0.00
2013-8-31,81,70,64,72,67,62,93,88,71,29.80,29.72,3,0,11,0.17
2013-9-1,83,71,66,72,67,64,94,88,64,29.83,29.77,3,0,8,0.31
2013-9-2,80,70,65,71,67,62,94,88,71,29.79,29.66,4,0,19,1.48
2013-9-3,72,65,60,63,59,54,94,82,61,29.83,29.69,2,0,10,0.02
2013-9-4,74,64,54,57,54,48,90,72,40,29.92,29.82,4,1,13,0.00
2013-9-5,66,58,44,57,47,36,93,71,35,30.16,29.86,4,1,14,0.01
2013-9-6,66,50,37,44,39,34,94,72,32,30.26,30.12,4,0,12,0.00
2013-9-7,74,56,41,58,47,39,94,78,30,30.13,29.87,3,0,8,0.03
2013-9-8,66,57,42,58,50,40,93,79,41,30.11,29.78,4,1,14,0.03
2013-9-9,68,51,36,51,42,34,94,77,45,30.23,30.10,3,0,8,0.00
2013-9-10,76,63,49,68,59,47,93,89,76,30.13,30.00,3,0,7,0.51
2013-9-11,91,73,61,75,67,59,94,82,48,30.07,29.92,5,1,18,0.50
2013-9-12,77,67,64,73,65,62,94,92,83,29.94,29.65,4,0,14,2.23
2013-9-13,69,62,54,63,58,49,94,86,71,29.81,29.60,3,0,10,0.06
2013-9-14,57,52,46,51,48,44,92,85,73,30.09,29.80,2,0,10,0.02
2013-9-15,69,52,37,52,45,35,94,80,47,30.19,30.05,4,0,10,0.01
2013-9-16,64,52,38,52,47,35,93,84,61,30.27,30.02,4,0,12,0.03
2013-9-17,64,46,31,46,37,29,94,76,36,30.44,30.27,4,0,11,0.01
2013-9-18,71,50,34,52,42,32,94,77,38,30.36,30.16,2,0,7,0.01
2013-9-19,77,54,38,56,46,36,94,77,26,30.17,30.04,2,0,7,0.00
2013-9-20,79,58,42,58,50,40,94,77,37,30.09,29.96,4,0,10,0.01
2013-9-21,71,60,47,62,54,45,94,80,50,29.99,29.62,6,2,20,0.11
2013-9-22,64,56,48,61,48,40,93,77,58,29.88,29.58,5,1,13,0.77
2013-9-23,51,28,39,43,-14,-100,91,51,66,30.05,29.87,4,0,12,0.00
2013-9-24,62,47,38,47,40,35,92,78,45,30.05,29.88,3,1,12,0.00
2013-9-25,69,51,38,52,45,36,93,80,48,29.98,29.88,3,0,10,0.00
2013-9-26,65,52,43,51,46,41,93,80,52,30.13,29.98,3,0,8,0.00
2013-9-27,58,48,39,51,45,37,94,87,70,30.30,30.13,1,0,4,0.01
2013-9-28,72,51,36,56,45,34,94,82,43,30.36,30.26,2,0,6,0.00
2013-9-29,72,54,41,54,47,39,94,80,42,30.26,30.07,4,0,9,0.01
2013-9-30,72,53,39,52,46,37,94,78,42,30.10,29.95,3,0,8,0.00
2013-10-1,74,55,39,58,48,37,94,81,50,30.01,29.89,3,0,11,0.01
2013-10-2,72,59,46,60,52,44,94,80,58,30.00,29.88,4,1,15,0.00
2013-10-3,72,55,40,53,46,38,94,76,34,30.11,30.00,3,0,8,0.01
2013-10-4,62,56,51,58,53,48,93,90,87,30.08,30.02,1,0,2,0.36
2013-10-5,63,59,57,59,56,54,93,90,79,30.09,30.04,1,0,4,0.10
2013-10-6,59,56,53,57,53,49,93,89,85,30.13,30.06,4,0,13,0.18
2013-10-7,74,60,51,64,56,47,92,86,71,30.07,29.67,7,2,20,0.68
2013-10-8,62,50,38,48,40,33,92,72,39,30.37,29.91,5,1,18,0.00
2013-10-9,65,46,32,41,36,31,94,73,30,30.48,30.36,3,0,8,0.00
2013-10-10,59,46,35,47,40,33,94,81,47,30.37,30.18,2,0,4,0.00
2013-10-11,74,54,38,46,38,14,92,63,12,30.18,30.08,1,0,6,0.00
2013-10-12,66,54,42,52,46,38,87,76,55,30.35,30.15,4,1,16,0.00
2013-10-13,66,54,45,48,45,40,90,74,49,30.41,30.33,2,0,8,0.00
2013-10-14,70,55,43,52,47,40,91,77,45,30.36,30.21,3,0,7,0.00
2013-10-15,64,59,54,54,52,48,91,80,68,30.25,30.11,3,0,9,0.00
2013-10-16,64,54,47,52,48,45,92,81,63,30.11,29.88,2,0,6,0.00
2013-10-17,69,57,51,53,49,44,93,77,42,29.88,29.63,3,0,8,0.07
2013-10-18,61,55,50,57,44,33,93,68,39,29.90,29.57,5,2,18,0.17
2013-10-19,63,50,35,44,38,33,93,66,38,29.95,29.72,5,1,11,0.00
2013-10-20,56,47,36,46,36,29,88,67,38,30.02,29.68,5,2,15,0.02
2013-10-21,64,46,33,40,36,31,92,71,35,30.11,29.95,5,1,13,0.00
2013-10-22,54,43,35,49,39,31,94,86,76,29.94,29.72,3,0,9,0.09
2013-10-23,50,39,29,35,31,27,93,76,42,29.80,29.60,2,0,6,0.00
2013-10-24,46,40,31,34,29,22,89,67,40,29.90,29.68,4,1,17,0.03
2013-10-25,45,39,34,34,29,24,87,70,47,30.15,29.90,5,1,16,0.00
2013-10-26,47,42,35,33,29,24,83,62,40,30.14,29.83,7,2,17,0.00
2013-10-27,47,42,31,34,30,27,86,64,50,30.06,29.78,4,1,16,0.00
2013-10-28,53,37,26,34,28,23,93,73,40,30.35,30.06,5,1,17,0.00
2013-10-29,44,30,21,23,20,14,90,69,32,30.46,30.35,3,0,14,0.00
2013-10-30,51,36,27,38,30,21,91,79,60,30.37,30.21,2,0,6,0.02
2013-10-31,58,45,28,56,43,26,93,91,80,30.25,29.72,4,1,12,0.85
2013-11-1,66,59,50,60,52,40,92,79,51,29.72,29.39,6,2,20,0.98
2013-11-2,62,47,36,46,40,33,93,78,44,29.77,29.59,4,0,9,0.12
2013-11-3,44,34,23,39,23,9,90,65,41,30.44,29.75,3,1,12,0.00
2013-11-4,42,27,17,22,17,11,89,70,33,30.70,30.45,3,0,8,0.00
2013-11-5,50,35,23,33,26,19,86,72,50,30.70,30.50,5,1,13,0.00
2013-11-6,57,46,34,45,39,31,90,76,55,30.50,29.98,8,2,18,0.00
2013-11-7,56,48,35,51,41,22,92,77,57,29.98,29.72,8,2,21,0.45
2013-11-8,41,34,28,32,26,20,86,72,50,30.10,29.83,6,1,19,0.01
2013-11-9,40,33,26,30,25,20,85,72,53,30.23,29.97,3,1,9,0.00
2013-11-10,46,39,30,38,32,26,93,77,60,29.97,29.75,7,2,23,0.05
2013-11-11,44,40,34,30,27,24,71,60,50,30.11,29.89,6,2,21,0.00
2013-11-12,43,29,21,33,20,13,87,68,54,30.24,29.89,4,1,14,0.01
2013-11-13,31,25,18,18,13,6,72,60,37,30.34,30.17,4,1,13,0.00
2013-11-14,47,32,22,24,19,12,89,62,35,30.16,30.08,5,1,13,0.00
2013-11-15,55,33,19,26,20,9,90,68,16,30.23,30.12,3,0,5,0.00
2013-11-16,57,39,30,32,29,23,89,69,35,30.32,30.21,3,0,8,0.00
2013-11-17,57,46,30,53,42,27,91,88,85,30.29,29.75,5,1,13,0.05
2013-11-18,60,53,38,55,40,27,91,63,37,29.75,29.48,7,3,21,0.42
2013-11-19,38,33,25,28,20,15,71,58,48,30.34,29.70,6,2,19,0.00
2013-11-20,37,25,18,18,16,13,88,68,42,30.64,30.34,4,1,10,0.00
2013-11-21,43,29,15,30,20,11,88,72,34,30.65,30.39,5,0,13,0.00
2013-11-22,46,39,32,43,37,29,93,91,82,30.39,29.86,4,0,14,0.11
2013-11-23,44,32,21,39,23,13,85,70,53,29.99,29.81,5,3,23,0.00
2013-11-24,22,17,12,13,2,-4,77,53,32,30.28,29.86,7,3,29,0.00
2013-11-25,28,20,7,13,6,-1,79,56,41,30.43,30.25,4,1,11,0.00
2013-11-26,34,29,24,30,24,11,91,82,50,30.31,29.98,2,0,7,0.00
2013-11-27,43,36,31,41,34,26,93,90,85,29.97,29.36,4,1,20,1.10
2013-11-28,30,21,12,26,13,8,87,70,49,30.44,29.55,6,2,19,0.00
2013-11-29,28,17,10,16,11,6,89,77,50,30.75,30.44,4,0,11,0.00
2013-11-30,29,18,5,16,7,1,85,64,38,30.80,30.42,5,1,11,0.00
2013-12-1,40,31,25,31,26,16,91,82,66,30.42,30.02,0,0,2,0.04
2013-12-2,41,33,26,34,29,24,92,88,75,30.02,29.89,1,0,3,0.01
2013-12-3,41,32,24,34,28,22,92,87,74,29.99,29.90,2,0,7,0.01
2013-12-4,42,31,26,28,26,23,92,82,49,30.17,29.98,3,0,7,0.00
2013-12-5,53,44,30,50,41,27,92,89,83,30.17,29.89,6,1,14,0.04
2013-12-6,53,39,31,50,36,28,91,87,79,30.14,29.85,3,1,13,0.12
2013-12-7,34,29,25,28,22,17,90,75,56,30.46,30.09,4,1,15,0.00
2013-12-8,28,25,21,20,15,11,78,65,51,30.57,30.45,4,0,11,0.00
2013-12-9,36,29,22,31,24,14,92,84,62,30.45,29.90,4,1,15,0.00
2013-12-10,34,28,20,28,20,12,85,72,64,29.98,29.81,4,1,16,0.00
2013-12-11,26,23,19,18,12,6,86,65,55,30.20,29.98,5,2,18,0.00
2013-12-12,21,14,6,14,4,-2,84,63,43,30.30,30.05,5,1,14,0.00
2013-12-13,23,17,5,17,8,-1,84,68,54,30.40,29.98,5,1,14,0.00
2013-12-14,15,10,5,12,3,-1,86,73,58,30.57,30.10,7,1,21,0.00
2013-12-15,29,23,16,25,18,12,87,81,72,30.09,29.53,8,3,28,0.00
2013-12-16,24,17,5,19,7,-1,81,65,49,30.23,29.73,5,2,17,0.00
2013-12-17,16,7,-8,13,3,-12,87,84,78,30.27,30.05,1,0,4,0.00
2013-12-18,26,20,6,21,15,2,87,82,69,30.10,30.01,4,1,14,0.00
2013-12-19,39,31,18,28,21,14,87,68,48,30.12,29.99,4,1,13,0.06
2013-12-20,41,34,30,34,30,26,92,86,71,30.12,29.95,2,0,8,0.32
2013-12-21,51,38,33,44,35,31,93,91,74,29.99,29.88,2,0,6,0.32
2013-12-22,58,47,36,55,45,34,94,92,86,29.95,29.71,5,1,15,0.19
2013-12-23,42,39,32,40,36,25,94,91,74,30.16,29.92,4,1,14,0.35
2013-12-24,32,25,15,25,15,5,77,66,52,30.30,30.11,4,1,25,0.00
2013-12-25,19,14,6,7,3,-1,72,61,50,30.54,30.30,4,1,16,0.00
2013-12-26,28,24,18,23,18,5,85,76,55,30.48,30.14,4,1,12,0.00
2013-12-27,31,27,24,21,18,15,75,67,52,30.30,30.23,4,2,16,0.00
2013-12-28,43,29,15,28,22,12,90,75,50,30.25,30.05,5,1,14,0.01
2013-12-29,40,31,25,33,28,23,93,89,71,30.09,29.57,1,0,4,0.77
2013-12-30,36,24,9,33,16,3,93,74,59,30.20,29.65,6,2,23,0.06
2013-12-31,20,14,5,16,6,1,86,74,55,30.24,30.05,5,1,17,0.00
2014-1-1,22,15,11,10,6,1,85,69,52,30.40,30.22,4,1,16,0.00
2014-1-2,14,11,6,11,7,1,86,81,73,30.37,29.86,5,1,21,0.00